Time;durP1;ratioP1;P1;durP2;ratioP2;P2;SDS_P1;SDS_P2;PMS_P1;PMS_P2;Temp;Humidity;BMP_temperature;BMP_pressure;BME280_temperature;BME280_humidity;BME280_pressure;Samples;Min_cycle;Max_cycle;Signal;HPM_P1;HPM_P2
2021/01/15 00:00:22;;;;;;;16.77;8.50;;;0.20;99.60;;;;;;5096079;28;20513;-84
2021/01/15 00:02:47;;;;;;;14.32;8.57;;;0.30;99.60;;;;;;5088811;28;20020;-84
2021/01/15 00:05:13;;;;;;;14.75;8.45;;;0.30;99.70;;;;;;5092067;28;20023;-83
2021/01/15 00:07:38;;;;;;;15.48;8.27;;;0.20;99.60;;;;;;5091467;28;20039;-84
2021/01/15 00:10:05;;;;;;;13.85;7.75;;;0.20;99.60;;;;;;5094233;28;20110;-84
2021/01/15 00:12:30;;;;;;;18.63;10.75;;;0.20;99.60;;;;;;5092605;28;20162;-83
2021/01/15 00:14:56;;;;;;;20.90;9.70;;;0.20;99.60;;;;;;5078099;28;20069;-84
2021/01/15 00:17:21;;;;;;;15.73;8.48;;;0.10;99.60;;;;;;5095061;28;20028;-84
2021/01/15 00:19:47;;;;;;;14.10;8.60;;;0.10;99.70;;;;;;5095254;28;20459;-84
2021/01/15 00:22:13;;;;;;;13.65;7.78;;;0.10;99.70;;;;;;5092144;28;20030;-84
2021/01/15 00:24:38;;;;;;;14.55;7.05;;;0.10;99.70;;;;;;5091258;28;20023;-84
2021/01/15 00:27:04;;;;;;;13.00;7.15;;;0.10;99.70;;;;;;5093996;28;20406;-84
2021/01/15 00:29:29;;;;;;;11.13;6.72;;;0.10;99.70;;;;;;5094060;28;20021;-84
2021/01/15 00:31:55;;;;;;;12.90;8.00;;;0.10;99.70;;;;;;5086143;28;20077;-84
2021/01/15 00:34:20;;;;;;;13.48;7.35;;;0.10;99.70;;;;;;5088542;28;20020;-84
2021/01/15 00:36:49;;;;;;;11.45;7.57;;;0.10;99.70;;;;;;5088077;28;20061;-84
2021/01/15 00:39:15;;;;;;;12.68;8.10;;;0.10;99.60;;;;;;5094695;28;20054;-84
2021/01/15 00:41:43;;;;;;;14.82;8.18;;;0.10;99.70;;;;;;5087397;28;20020;-84
2021/01/15 00:44:09;;;;;;;12.32;7.18;;;0.00;99.60;;;;;;5092853;28;20019;-83
2021/01/15 00:46:36;;;;;;;14.57;8.52;;;0.10;99.70;;;;;;5088226;28;20031;-85
2021/01/15 00:49:09;;;;;;;14.07;9.02;;;0.00;99.60;;;;;;5086245;28;20392;-84
2021/01/15 00:51:37;;;;;;;12.20;7.20;;;0.00;99.60;;;;;;5086592;28;20483;-85
2021/01/15 00:54:05;;;;;;;9.07;5.85;;;0.00;99.60;;;;;;5091687;28;20170;-83
2021/01/15 00:56:31;;;;;;;10.60;5.35;;;0.10;99.70;;;;;;5093649;28;20060;-84
2021/01/15 00:58:56;;;;;;;12.00;6.20;;;0.10;99.60;;;;;;5093226;28;20052;-85
2021/01/15 01:01:23;;;;;;;17.17;8.95;;;0.10;99.60;;;;;;5071221;28;20032;-85
2021/01/15 01:03:50;;;;;;;12.00;6.95;;;0.10;99.60;;;;;;5094688;28;20054;-85
2021/01/15 01:06:17;;;;;;;11.40;6.18;;;0.10;99.60;;;;;;5070995;28;20024;-84
2021/01/15 01:08:44;;;;;;;11.13;6.10;;;0.10;99.60;;;;;;5092790;28;20026;-85
2021/01/15 01:11:24;;;;;;;10.85;6.00;;;0.10;99.60;;;;;;5071050;28;20093;-85
2021/01/15 01:13:51;;;;;;;11.68;7.25;;;0.20;99.50;;;;;;5071185;28;20027;-85
2021/01/15 01:16:18;;;;;;;15.32;7.63;;;0.20;99.50;;;;;;5074861;28;20024;-86
2021/01/15 01:18:45;;;;;;;11.98;6.75;;;0.20;99.50;;;;;;5094598;28;20094;-85
2021/01/15 01:21:12;;;;;;;12.20;7.55;;;0.20;99.40;;;;;;5069062;28;20020;-86
2021/01/15 01:23:38;;;;;;;15.63;7.72;;;0.20;99.40;;;;;;5092062;28;20031;-86
2021/01/15 01:26:04;;;;;;;12.30;6.28;;;0.20;99.30;;;;;;5070989;28;20023;-85
2021/01/15 01:28:29;;;;;;;11.48;6.32;;;0.30;99.30;;;;;;5091510;28;20024;-85
2021/01/15 01:30:55;;;;;;;12.38;8.05;;;0.30;99.60;;;;;;5068246;28;20035;-86
2021/01/15 01:33:21;;;;;;;11.65;7.57;;;0.30;99.30;;;;;;5065532;28;20467;-86
2021/01/15 01:35:46;;;;;;;11.93;7.20;;;0.40;99.30;;;;;;5072273;28;20077;-86
2021/01/15 01:38:12;;;;;;;10.48;6.15;;;0.40;99.20;;;;;;5068285;28;20069;-85
2021/01/15 01:40:38;;;;;;;9.95;6.30;;;0.40;99.20;;;;;;5073577;28;20024;-86
2021/01/15 01:43:03;;;;;;;10.95;6.00;;;0.50;99.20;;;;;;5069969;28;20012;-86
2021/01/15 01:45:29;;;;;;;8.13;5.30;;;0.50;99.10;;;;;;5070207;28;20032;-86
2021/01/15 01:47:55;;;;;;;9.27;5.72;;;0.50;99.10;;;;;;5068130;28;20019;-86
2021/01/15 01:50:23;;;;;;;10.82;6.18;;;0.60;99.20;;;;;;5092114;28;20025;-86
2021/01/15 01:52:48;;;;;;;9.40;5.97;;;0.60;99.00;;;;;;5090829;28;20039;-85
2021/01/15 01:55:15;;;;;;;12.05;6.68;;;0.60;99.00;;;;;;5074563;28;20035;-86
2021/01/15 01:57:40;;;;;;;11.13;6.30;;;0.70;99.00;;;;;;5093684;28;20470;-86
2021/01/15 02:00:07;;;;;;;10.00;6.05;;;0.70;98.80;;;;;;5090332;28;20027;-86
2021/01/15 02:02:33;;;;;;;8.95;5.65;;;0.70;98.80;;;;;;5093424;28;20025;-85
2021/01/15 02:04:58;;;;;;;7.72;4.78;;;0.70;98.90;;;;;;5092216;28;20015;-86
2021/01/15 02:07:24;;;;;;;12.82;7.15;;;0.70;98.90;;;;;;5111562;28;20506;-87
2021/01/15 02:10:14;;;;;;;13.43;7.55;;;0.80;98.80;;;;;;5110681;28;20081;-87
2021/01/15 02:12:39;;;;;;;;;;;0.80;98.50;;;;;;5089401;28;20106;-86
2021/01/15 02:15:15;;;;;;;9.85;6.18;;;0.80;98.50;;;;;;5090146;28;20045;-86
2021/01/15 02:18:13;;;;;;;11.98;5.97;;;0.80;98.60;;;;;;5112900;28;20026;-86
2021/01/15 02:20:57;;;;;;;11.73;6.72;;;0.90;98.50;;;;;;5057350;28;20055;-85
2021/01/15 02:23:38;;;;;;;9.23;6.15;;;1.00;98.40;;;;;;5087642;28;20107;-86
2021/01/15 02:26:33;;;;;;;10.40;5.85;;;1.00;98.30;;;;;;5093101;28;20019;-86
2021/01/15 02:29:08;;;;;;;9.80;5.97;;;1.00;98.40;;;;;;5113106;28;20012;-86
2021/01/15 02:31:46;;;;;;;10.35;5.85;;;1.00;98.50;;;;;;5095735;28;20027;-85
2021/01/15 02:35:01;;;;;;;9.85;6.00;;;1.10;98.40;;;;;;5091285;28;20107;-86
2021/01/15 02:37:46;;;;;;;10.75;6.40;;;1.10;98.40;;;;;;5086154;28;20017;-86
2021/01/15 02:40:20;;;;;;;8.73;5.82;;;1.10;98.40;;;;;;5111537;28;20046;-85
2021/01/15 02:42:49;;;;;;;12.63;6.28;;;1.10;98.40;;;;;;5090382;28;20020;-85
2021/01/15 02:45:14;;;;;;;9.63;5.90;;;1.20;98.50;;;;;;5094329;28;20051;-86
2021/01/15 02:47:48;;;;;;;7.32;4.72;;;1.20;98.50;;;;;;5095071;28;20040;-86
2021/01/15 02:50:21;;;;;;;8.80;5.68;;;1.20;98.50;;;;;;5087019;28;20106;-85
2021/01/15 02:52:47;;;;;;;9.20;5.45;;;1.20;98.60;;;;;;5093251;28;20023;-85
2021/01/15 02:55:14;;;;;;;9.90;5.85;;;1.20;98.60;;;;;;5089085;28;20126;-85
2021/01/15 02:57:40;;;;;;;9.18;5.93;;;1.20;98.60;;;;;;5087974;28;20024;-85
2021/01/15 03:00:08;;;;;;;9.13;5.03;;;1.20;98.60;;;;;;5113233;28;20027;-85
2021/01/15 03:02:37;;;;;;;9.05;5.65;;;1.20;98.60;;;;;;5094154;28;20024;-85
2021/01/15 03:05:08;;;;;;;12.98;6.50;;;1.20;98.70;;;;;;5092056;28;20059;-85
2021/01/15 03:07:34;;;;;;;10.00;6.13;;;1.30;98.70;;;;;;5110719;28;20024;-85
2021/01/15 03:10:04;;;;;;;8.80;5.60;;;1.30;98.70;;;;;;5092012;28;20110;-85
2021/01/15 03:12:30;;;;;;;9.55;6.45;;;1.30;98.60;;;;;;5083883;28;20027;-85
2021/01/15 03:14:57;;;;;;;10.23;6.75;;;1.30;98.60;;;;;;5093751;28;20475;-85
2021/01/15 03:17:30;;;;;;;8.40;5.45;;;1.30;98.60;;;;;;5089102;28;20359;-85
2021/01/15 03:19:56;;;;;;;7.70;5.22;;;1.40;98.50;;;;;;5088104;28;20415;-85
2021/01/15 03:22:22;;;;;;;10.35;5.30;;;1.30;98.60;;;;;;5091852;28;20496;-85
2021/01/15 03:24:58;;;;;;;9.02;5.75;;;1.30;98.60;;;;;;5086248;28;20016;-85
2021/01/15 03:27:49;;;;;;;11.27;6.28;;;1.40;98.50;;;;;;5088398;28;20015;-85
2021/01/15 03:30:18;;;;;;;9.73;6.72;;;1.40;98.60;;;;;;5125519;27;20398;-86
2021/01/15 03:32:48;;;;;;;10.38;6.97;;;1.40;98.60;;;;;;5113272;28;20498;-84
2021/01/15 03:35:23;;;;;;;;;;;1.40;98.60;;;;;;5093021;28;20066;-85
2021/01/15 03:38:10;;;;;;;12.27;6.35;;;1.30;98.60;;;;;;5111672;28;19953;-84
2021/01/15 03:40:40;;;;;;;10.20;6.10;;;1.40;98.60;;;;;;5080480;28;20079;-85
2021/01/15 03:43:20;;;;;;;8.70;5.68;;;1.30;98.60;;;;;;5083991;28;20012;-84
2021/01/15 03:45:47;;;;;;;10.98;6.68;;;1.40;98.60;;;;;;5087536;28;20020;-85
2021/01/15 03:48:14;;;;;;;10.75;6.07;;;1.40;98.80;;;;;;5093980;28;20019;-84
2021/01/15 03:50:40;;;;;;;10.38;6.57;;;1.40;98.80;;;;;;5109920;28;20076;-84
2021/01/15 03:53:05;;;;;;;9.60;6.65;;;1.40;98.80;;;;;;5110510;28;20028;-84
2021/01/15 03:55:32;;;;;;;9.48;6.00;;;1.40;98.90;;;;;;5087435;28;20491;-84
2021/01/15 03:57:58;;;;;;;11.65;7.22;;;1.40;98.90;;;;;;5092188;28;20118;-84
2021/01/15 04:00:23;;;;;;;11.63;6.50;;;1.40;98.90;;;;;;5088499;28;20103;-84
2021/01/15 04:02:49;;;;;;;10.75;6.68;;;1.40;98.90;;;;;;5090226;28;20509;-84
2021/01/15 04:05:15;;;;;;;9.48;6.28;;;1.40;98.90;;;;;;5112558;28;20020;-84
2021/01/15 04:07:41;;;;;;;10.15;6.35;;;1.40;98.90;;;;;;5083537;28;20475;-84
2021/01/15 04:10:10;;;;;;;9.70;6.03;;;1.40;99.00;;;;;;5086655;28;20103;-84
2021/01/15 04:12:36;;;;;;;11.02;6.45;;;1.40;99.00;;;;;;5082871;28;20027;-84
2021/01/15 04:15:02;;;;;;;12.23;7.47;;;1.40;99.00;;;;;;5111344;28;20172;-84
2021/01/15 04:17:28;;;;;;;10.65;7.38;;;1.40;98.90;;;;;;5087482;28;20019;-84
2021/01/15 04:19:53;;;;;;;9.65;6.30;;;1.40;98.90;;;;;;5087318;28;20149;-85
2021/01/15 04:22:19;;;;;;;12.20;7.10;;;1.40;99.00;;;;;;5090945;28;20044;-84
2021/01/15 04:24:44;;;;;;;11.57;7.03;;;1.40;98.90;;;;;;5089100;28;20468;-84
2021/01/15 04:27:10;;;;;;;13.85;7.13;;;1.40;98.90;;;;;;5091489;28;20020;-84
2021/01/15 04:29:35;;;;;;;11.30;7.53;;;1.50;99.00;;;;;;5114089;28;20072;-84
2021/01/15 04:32:02;;;;;;;12.90;7.35;;;1.40;99.00;;;;;;5112737;28;20020;-84
2021/01/15 04:34:28;;;;;;;10.82;6.57;;;1.50;99.00;;;;;;5089569;28;20022;-84
2021/01/15 04:36:53;;;;;;;10.55;7.18;;;1.50;99.00;;;;;;5112173;28;20024;-84
2021/01/15 04:39:19;;;;;;;13.90;7.65;;;1.50;99.00;;;;;;5095256;28;20467;-84
2021/01/15 04:41:47;;;;;;;13.30;7.75;;;1.50;99.00;;;;;;5114501;28;20535;-84
2021/01/15 04:44:13;;;;;;;11.05;7.13;;;1.50;99.00;;;;;;5087276;28;20540;-85
2021/01/15 04:46:40;;;;;;;12.50;7.10;;;1.50;99.10;;;;;;5096482;28;20133;-84
2021/01/15 04:49:08;;;;;;;9.27;5.93;;;1.50;99.20;;;;;;5091556;28;20017;-85
2021/01/15 04:51:36;;;;;;;11.35;6.32;;;1.50;99.20;;;;;;5113289;28;20061;-84
2021/01/15 04:54:08;;;;;;;11.32;6.07;;;1.50;99.20;;;;;;5091503;28;20020;-84
2021/01/15 04:56:47;;;;;;;14.73;7.85;;;1.60;99.30;;;;;;5113670;28;20085;-84
2021/01/15 04:59:13;;;;;;;12.47;7.13;;;1.60;99.20;;;;;;5112767;28;20031;-84
2021/01/15 05:01:41;;;;;;;11.05;6.97;;;1.50;99.30;;;;;;5090658;28;20746;-84
2021/01/15 05:04:08;;;;;;;12.88;8.18;;;1.60;99.30;;;;;;5096667;28;20086;-84
2021/01/15 05:06:49;;;;;;;8.88;5.95;;;1.60;99.30;;;;;;5088434;28;20028;-84
2021/01/15 05:09:20;;;;;;;13.05;8.52;;;1.60;99.30;;;;;;5089727;28;20387;-84
2021/01/15 05:11:47;;;;;;;12.32;7.63;;;1.60;99.30;;;;;;5092579;28;20027;-84
2021/01/15 05:14:15;;;;;;;13.90;8.10;;;1.60;99.30;;;;;;5090715;28;20028;-84
2021/01/15 05:16:43;;;;;;;11.75;8.15;;;1.60;99.30;;;;;;5095349;28;20096;-84
2021/01/15 05:19:10;;;;;;;10.00;6.53;;;1.50;99.30;;;;;;5087979;28;20041;-84
2021/01/15 05:21:37;;;;;;;11.07;7.45;;;1.60;99.40;;;;;;5114344;28;20463;-84
2021/01/15 05:24:04;;;;;;;13.38;7.78;;;1.50;99.40;;;;;;5087852;28;20015;-83
2021/01/15 05:26:32;;;;;;;11.60;7.45;;;1.60;99.50;;;;;;5088631;28;20479;-84
2021/01/15 05:29:00;;;;;;;10.95;6.80;;;1.60;99.50;;;;;;5112781;28;20037;-84
2021/01/15 05:31:25;;;;;;;10.63;7.00;;;1.60;99.40;;;;;;5096229;28;20081;-84
2021/01/15 05:34:04;;;;;;;11.05;6.75;;;1.60;99.50;;;;;;5091064;28;20016;-83
2021/01/15 05:36:30;;;;;;;10.95;7.25;;;1.60;99.50;;;;;;5088170;28;20019;-84
2021/01/15 05:39:25;;;;;;;14.00;8.75;;;1.60;99.50;;;;;;5112221;28;20030;-84
2021/01/15 05:42:01;;;;;;;12.65;7.82;;;1.60;99.40;;;;;;5090534;28;20065;-84
2021/01/15 05:44:32;;;;;;;10.43;6.75;;;1.60;99.50;;;;;;5111560;28;20012;-84
2021/01/15 05:47:00;;;;;;;10.80;6.85;;;1.60;99.50;;;;;;5087373;28;20027;-84
2021/01/15 05:49:26;;;;;;;11.48;7.28;;;1.60;99.50;;;;;;5111717;28;20482;-84
2021/01/15 05:51:52;;;;;;;16.27;9.15;;;1.60;99.50;;;;;;5088036;28;20471;-84
2021/01/15 05:54:32;;;;;;;13.35;7.53;;;1.60;99.50;;;;;;5110209;28;20045;-84
2021/01/15 05:57:03;;;;;;;13.55;8.75;;;1.60;99.50;;;;;;5112551;28;20123;-84
2021/01/15 05:59:29;;;;;;;15.48;9.07;;;1.60;99.50;;;;;;5090266;28;20024;-84
2021/01/15 06:01:55;;;;;;;13.10;8.27;;;1.60;99.50;;;;;;5092341;28;20020;-84
2021/01/15 06:04:38;;;;;;;13.18;7.25;;;1.60;99.60;;;;;;5073123;28;20118;-84
2021/01/15 06:07:12;;;;;;;16.77;8.38;;;1.60;99.60;;;;;;5087689;28;20047;-84
2021/01/15 06:09:39;;;;;;;13.70;7.50;;;1.60;99.70;;;;;;5109286;28;20081;-84
2021/01/15 06:12:07;;;;;;;11.38;7.18;;;1.60;99.70;;;;;;5088200;28;20103;-84
2021/01/15 06:14:33;;;;;;;12.30;7.97;;;1.60;99.80;;;;;;5110908;28;20013;-84
2021/01/15 06:17:05;;;;;;;13.55;7.65;;;1.70;99.80;;;;;;5089021;28;20093;-84
2021/01/15 06:19:54;;;;;;;11.85;6.53;;;1.70;99.70;;;;;;5089680;28;20031;-84
2021/01/15 06:22:32;;;;;;;13.98;7.93;;;1.70;99.70;;;;;;5111253;28;20060;-82
2021/01/15 06:25:26;;;;;;;14.52;8.80;;;1.70;99.80;;;;;;5090628;28;20078;-84
2021/01/15 06:27:55;;;;;;;13.45;8.35;;;1.70;99.80;;;;;;5095619;28;20019;-84
2021/01/15 06:30:27;;;;;;;11.60;7.35;;;1.70;99.90;;;;;;5095251;28;20020;-83
2021/01/15 06:32:54;;;;;;;12.43;7.78;;;1.60;99.90;;;;;;5095003;28;20019;-84
2021/01/15 06:35:29;;;;;;;14.50;8.50;;;1.70;99.90;;;;;;5095194;28;20034;-84
2021/01/15 06:38:10;;;;;;;13.20;8.52;;;1.70;99.90;;;;;;5085148;28;20093;-84
2021/01/15 06:40:40;;;;;;;14.50;8.23;;;1.70;99.90;;;;;;5084509;28;20028;-84
2021/01/15 06:43:28;;;;;;;14.02;8.25;;;1.60;99.90;;;;;;5079552;28;20475;-84
2021/01/15 06:45:57;;;;;;;15.40;8.75;;;1.70;99.90;;;;;;5075792;28;20020;-83
2021/01/15 06:48:35;;;;;;;14.70;8.25;;;1.70;99.90;;;;;;5075360;28;20043;-84
2021/01/15 06:51:02;;;;;;;13.60;8.30;;;1.70;99.90;;;;;;5109145;28;20031;-84
2021/01/15 06:53:29;;;;;;;15.38;8.10;;;1.70;99.90;;;;;;5109105;28;20028;-84
2021/01/15 06:55:58;;;;;;;14.13;7.00;;;1.70;99.90;;;;;;5075052;28;20047;-84
2021/01/15 06:58:36;;;;;;;12.68;6.95;;;1.70;99.90;;;;;;5075411;28;20414;-84
2021/01/15 07:01:19;;;;;;;11.25;7.03;;;1.80;99.90;;;;;;5075237;28;20035;-84
2021/01/15 07:04:21;;;;;;;12.07;6.75;;;1.80;99.90;;;;;;5075198;28;20024;-84
2021/01/15 07:07:09;;;;;;;9.20;6.10;;;1.80;99.90;;;;;;5093504;28;20020;-84
2021/01/15 07:09:35;;;;;;;11.95;7.15;;;1.80;99.90;;;;;;5080534;28;20035;-83
2021/01/15 07:12:16;;;;;;;12.15;7.80;;;1.70;99.90;;;;;;5108820;28;20542;-84
2021/01/15 07:14:51;;;;;;;18.88;9.63;;;1.80;99.90;;;;;;5095402;28;20042;-84
2021/01/15 07:17:37;;;;;;;13.43;8.20;;;1.70;99.90;;;;;;5095577;28;20051;-84
2021/01/15 07:20:12;;;;;;;12.35;6.97;;;1.70;99.90;;;;;;5113075;28;20638;-84
2021/01/15 07:23:00;;;;;;;11.00;7.38;;;1.70;99.90;;;;;;5095404;28;20045;-84
2021/01/15 07:25:26;;;;;;;13.95;7.63;;;1.80;99.90;;;;;;5095388;28;20024;-83
2021/01/15 07:27:52;;;;;;;12.00;7.45;;;1.70;99.90;;;;;;5095292;28;20034;-84
2021/01/15 07:30:23;;;;;;;12.52;7.78;;;1.80;99.90;;;;;;5095281;28;20024;-84
2021/01/15 07:32:58;;;;;;;15.02;8.43;;;1.80;99.90;;;;;;5095369;28;20028;-84
2021/01/15 07:35:26;;;;;;;11.05;7.57;;;1.80;99.90;;;;;;5083314;28;20027;-83
2021/01/15 07:38:09;;;;;;;14.00;8.23;;;1.80;99.90;;;;;;5094987;28;20088;-84
2021/01/15 07:40:35;;;;;;;12.07;7.03;;;1.80;99.90;;;;;;5113393;28;20023;-84
2021/01/15 07:43:02;;;;;;;14.63;7.75;;;1.80;99.90;;;;;;5113448;28;20015;-84
2021/01/15 07:45:28;;;;;;;14.60;9.05;;;1.80;99.90;;;;;;5095197;28;20027;-84
2021/01/15 07:48:02;;;;;;;11.57;7.20;;;1.90;99.90;;;;;;5095105;28;20382;-84
2021/01/15 07:50:28;;;;;;;13.60;7.25;;;1.90;99.90;;;;;;5083204;28;20028;-84
2021/01/15 07:53:14;;;;;;;12.70;7.40;;;1.90;99.90;;;;;;5103422;28;20095;-84
2021/01/15 07:55:56;;;;;;;17.02;9.52;;;1.90;99.90;;;;;;5103389;28;20104;-84
2021/01/15 07:58:24;;;;;;;13.65;7.88;;;1.90;99.90;;;;;;5084256;28;20367;-84
2021/01/15 08:00:50;;;;;;;15.23;8.40;;;1.90;99.90;;;;;;5086242;28;20052;-84
2021/01/15 08:03:16;;;;;;;15.35;8.05;;;1.90;99.90;;;;;;5096660;28;20027;-84
2021/01/15 08:05:44;;;;;;;14.35;8.25;;;1.90;99.90;;;;;;5078238;28;20020;-84
2021/01/15 08:08:15;;;;;;;14.27;8.15;;;1.90;99.90;;;;;;5107504;28;20031;-84
2021/01/15 08:10:47;;;;;;;15.43;8.43;;;1.90;99.90;;;;;;5098993;28;20038;-84
2021/01/15 08:13:29;;;;;;;14.98;8.50;;;1.90;99.90;;;;;;5117133;28;20030;-84
2021/01/15 08:15:56;;;;;;;13.23;7.95;;;1.90;99.90;;;;;;5103732;28;20024;-83
2021/01/15 08:18:23;;;;;;;17.95;8.45;;;1.90;99.90;;;;;;5114284;28;20023;-83
2021/01/15 08:20:51;;;;;;;13.57;8.05;;;2.00;99.90;;;;;;5097666;28;20027;-83
2021/01/15 08:23:27;;;;;;;14.32;7.82;;;2.00;99.90;;;;;;5098048;28;20023;-83
2021/01/15 08:26:14;;;;;;;15.27;8.27;;;2.00;99.90;;;;;;5110181;28;20024;-84
2021/01/15 08:28:39;;;;;;;15.75;9.05;;;2.00;99.90;;;;;;5079746;28;20251;-84
2021/01/15 08:31:09;;;;;;;15.55;8.48;;;2.00;99.90;;;;;;5078109;28;20046;-84
2021/01/15 08:33:35;;;;;;;13.77;7.73;;;2.00;99.90;;;;;;5078196;28;20028;-84
2021/01/15 08:36:03;;;;;;;14.82;8.52;;;2.00;99.90;;;;;;5112978;28;20058;-84
2021/01/15 08:38:37;;;;;;;14.77;8.32;;;2.10;99.90;;;;;;5114515;28;20072;-83
2021/01/15 08:41:23;;;;;;;12.52;7.63;;;2.10;99.90;;;;;;5098881;28;20019;-83
2021/01/15 08:43:58;;;;;;;17.00;8.18;;;2.10;99.90;;;;;;5111912;28;20028;-84
2021/01/15 08:46:24;;;;;;;13.07;7.70;;;2.10;99.90;;;;;;5077929;28;20480;-84
2021/01/15 08:48:50;;;;;;;13.70;7.38;;;2.10;99.90;;;;;;5101820;28;20058;-83
2021/01/15 08:51:25;;;;;;;15.40;8.38;;;2.10;99.90;;;;;;5106480;28;20023;-84
2021/01/15 08:54:05;;;;;;;12.15;7.40;;;2.20;99.90;;;;;;5094398;28;20046;-84
2021/01/15 08:56:40;;;;;;;;;;;2.20;99.90;;;;;;5116624;28;20051;-85
2021/01/15 08:59:10;;;;;;;13.32;7.43;;;2.10;99.90;;;;;;5098400;28;19946;-90
2021/01/15 09:01:41;;;;;;;13.95;8.25;;;2.10;99.90;;;;;;5099082;28;20020;-86
2021/01/15 09:04:11;;;;;;;14.80;8.45;;;2.10;99.90;;;;;;5098045;28;20024;-85
2021/01/15 09:06:39;;;;;;;15.95;8.82;;;2.20;99.90;;;;;;5086395;28;20119;-80
2021/01/15 09:09:10;;;;;;;17.42;9.40;;;2.20;99.90;;;;;;5089810;28;20042;-81
2021/01/15 09:11:38;;;;;;;18.67;10.60;;;2.10;99.90;;;;;;5115718;28;20028;-82
2021/01/15 09:14:05;;;;;;;17.42;10.00;;;2.10;99.90;;;;;;5096964;28;20062;-82
2021/01/15 09:16:31;;;;;;;14.18;8.80;;;2.20;99.90;;;;;;5108023;28;20027;-82
2021/01/15 09:19:05;;;;;;;15.98;8.85;;;2.20;99.90;;;;;;5113879;28;20072;-81
2021/01/15 09:21:31;;;;;;;17.27;9.93;;;2.20;99.90;;;;;;5114406;28;20024;-82
2021/01/15 09:23:56;;;;;;;16.05;10.48;;;2.10;99.90;;;;;;5114423;28;20028;-82
2021/01/15 09:26:23;;;;;;;17.00;10.10;;;2.10;99.90;;;;;;5115645;28;20038;-82
2021/01/15 09:28:49;;;;;;;15.27;8.75;;;2.20;99.90;;;;;;5115402;28;20475;-82
2021/01/15 09:31:14;;;;;;;14.35;7.95;;;2.20;99.90;;;;;;5115855;28;20038;-82
2021/01/15 09:33:49;;;;;;;13.13;7.60;;;2.30;99.90;;;;;;5114258;28;20092;-82
2021/01/15 09:36:27;;;;;;;13.70;8.55;;;2.30;99.90;;;;;;5114235;28;20061;-82
2021/01/15 09:38:55;;;;;;;15.95;9.35;;;2.30;99.90;;;;;;5113786;28;20036;-82
2021/01/15 09:41:21;;;;;;;16.05;9.00;;;2.30;99.90;;;;;;5113817;28;20440;-83
2021/01/15 09:43:47;;;;;;;16.05;9.32;;;2.30;99.90;;;;;;5115414;28;20035;-82
2021/01/15 09:46:39;;;;;;;16.65;9.15;;;2.30;99.90;;;;;;5115241;28;20526;-82
2021/01/15 09:49:04;;;;;;;14.85;8.98;;;2.30;99.90;;;;;;5109950;28;20027;-82
2021/01/15 09:51:30;;;;;;;14.30;7.88;;;2.30;99.90;;;;;;5110609;28;20024;-82
2021/01/15 09:53:57;;;;;;;17.40;8.57;;;2.30;99.90;;;;;;5112903;28;20051;-83
2021/01/15 09:56:34;;;;;;;15.80;8.45;;;2.40;99.90;;;;;;5113170;28;20052;-83
2021/01/15 09:59:01;;;;;;;17.60;9.50;;;2.40;99.90;;;;;;5113565;28;20024;-81
2021/01/15 10:01:28;;;;;;;16.60;9.60;;;2.40;99.90;;;;;;5114952;28;21044;-82
2021/01/15 10:03:55;;;;;;;14.07;8.60;;;2.50;99.90;;;;;;5114985;28;20083;-81
2021/01/15 10:06:22;;;;;;;14.52;8.88;;;2.50;99.90;;;;;;5115059;28;20019;-82
2021/01/15 10:08:47;;;;;;;16.25;9.25;;;2.50;99.90;;;;;;5113289;28;20383;-82
2021/01/15 10:11:22;;;;;;;12.30;8.50;;;2.50;99.90;;;;;;5113562;28;20020;-82
2021/01/15 10:13:48;;;;;;;15.52;9.43;;;2.50;99.90;;;;;;5114671;27;20024;-82
2021/01/15 10:16:14;;;;;;;13.02;8.02;;;2.50;99.90;;;;;;5113500;28;20028;-82
2021/01/15 10:18:40;;;;;;;15.75;9.00;;;2.50;99.90;;;;;;5113343;28;20410;-83
2021/01/15 10:21:07;;;;;;;15.68;9.27;;;2.60;99.90;;;;;;5113215;28;20345;-82
2021/01/15 10:23:37;;;;;;;15.20;8.48;;;2.60;99.90;;;;;;5113353;28;20024;-82
2021/01/15 10:26:03;;;;;;;15.70;10.32;;;2.60;99.90;;;;;;5087205;28;20030;-83
2021/01/15 10:28:29;;;;;;;15.55;10.10;;;2.60;99.90;;;;;;5077105;28;20502;-83
2021/01/15 10:30:55;;;;;;;19.83;10.05;;;2.60;99.90;;;;;;5091137;28;20032;-83
2021/01/15 10:33:22;;;;;;;16.05;9.82;;;2.60;99.90;;;;;;5096656;28;20070;-83
2021/01/15 10:35:51;;;;;;;12.70;8.23;;;2.60;99.90;;;;;;5114607;28;20023;-83
2021/01/15 10:38:17;;;;;;;15.63;9.13;;;2.70;99.90;;;;;;5096222;28;20092;-83
2021/01/15 10:40:43;;;;;;;15.18;9.55;;;2.70;99.90;;;;;;5096024;28;20425;-83
2021/01/15 10:43:09;;;;;;;15.70;9.27;;;2.70;99.90;;;;;;5109031;28;20051;-83
2021/01/15 10:45:35;;;;;;;15.93;9.80;;;2.70;99.90;;;;;;5076088;28;20063;-83
2021/01/15 10:48:02;;;;;;;20.73;13.10;;;2.70;99.90;;;;;;5075657;28;20016;-83
2021/01/15 10:50:28;;;;;;;17.83;11.50;;;2.70;99.90;;;;;;5076844;28;20060;-83
2021/01/15 10:52:54;;;;;;;21.10;11.55;;;2.60;99.90;;;;;;5094795;28;20502;-83
2021/01/15 10:55:20;;;;;;;17.17;10.57;;;2.70;99.90;;;;;;5084457;28;20398;-83
2021/01/15 10:57:46;;;;;;;13.27;8.82;;;2.60;99.90;;;;;;5102890;28;20055;-83
2021/01/15 11:00:13;;;;;;;14.00;8.52;;;2.70;99.90;;;;;;5086021;28;20024;-82
2021/01/15 11:02:39;;;;;;;16.98;8.68;;;2.70;99.90;;;;;;5103020;28;20112;-83
2021/01/15 11:05:08;;;;;;;15.35;9.02;;;2.80;99.90;;;;;;5084780;28;20106;-82
2021/01/15 11:07:34;;;;;;;14.57;9.80;;;2.80;99.90;;;;;;5086731;28;20016;-82
2021/01/15 11:10:00;;;;;;;14.60;9.52;;;2.80;99.90;;;;;;5085166;28;20103;-82
2021/01/15 11:12:26;;;;;;;13.10;8.40;;;2.90;99.90;;;;;;5108828;28;20031;-82
2021/01/15 11:14:51;;;;;;;13.77;8.77;;;2.90;99.90;;;;;;5086192;28;20030;-82
2021/01/15 11:17:17;;;;;;;12.75;7.88;;;2.90;99.90;;;;;;5104020;28;20015;-81
2021/01/15 11:19:45;;;;;;;14.30;8.70;;;2.90;99.90;;;;;;5084492;28;20016;-82
2021/01/15 11:22:11;;;;;;;11.80;7.10;;;2.90;99.90;;;;;;5101909;28;20032;-81
2021/01/15 11:24:36;;;;;;;13.65;7.50;;;2.90;99.90;;;;;;5111066;28;20034;-81
2021/01/15 11:27:02;;;;;;;11.57;7.22;;;2.90;99.90;;;;;;5083066;28;20016;-81
2021/01/15 11:29:28;;;;;;;12.50;7.38;;;2.90;99.90;;;;;;5101840;28;20019;-81
2021/01/15 11:31:53;;;;;;;12.60;7.75;;;3.00;99.90;;;;;;5083548;28;20024;-81
2021/01/15 11:34:20;;;;;;;9.93;7.03;;;3.00;99.90;;;;;;5092232;28;20020;-81
2021/01/15 11:36:48;;;;;;;12.82;8.25;;;3.00;99.90;;;;;;5094794;28;20564;-81
2021/01/15 11:39:14;;;;;;;11.75;7.28;;;3.00;99.90;;;;;;5112910;28;20106;-81
2021/01/15 11:41:40;;;;;;;14.15;8.05;;;3.00;99.90;;;;;;5094997;28;20115;-81
2021/01/15 11:44:07;;;;;;;13.05;7.57;;;3.00;99.90;;;;;;5095188;28;20114;-81
2021/01/15 11:46:32;;;;;;;15.55;8.15;;;3.10;99.90;;;;;;5094237;28;20039;-81
2021/01/15 11:49:02;;;;;;;11.73;7.93;;;3.10;99.90;;;;;;5089394;28;20514;-81
2021/01/15 11:51:27;;;;;;;15.40;8.18;;;3.10;99.90;;;;;;5089619;28;20066;-81
2021/01/15 11:53:53;;;;;;;12.15;8.60;;;3.10;99.90;;;;;;5092750;28;20486;-81
2021/01/15 11:56:19;;;;;;;11.40;7.88;;;3.10;99.90;;;;;;5109914;28;20079;-81
2021/01/15 11:58:44;;;;;;;13.13;8.50;;;3.20;99.90;;;;;;5092061;28;20100;-81
2021/01/15 12:01:10;;;;;;;12.40;7.38;;;3.20;99.90;;;;;;5085902;28;20063;-80
2021/01/15 12:03:36;;;;;;;14.77;9.48;;;3.20;99.90;;;;;;5090159;28;20016;-81
2021/01/15 12:06:02;;;;;;;14.05;8.95;;;3.10;99.90;;;;;;5109090;28;20023;-80
2021/01/15 12:08:27;;;;;;;14.88;9.00;;;3.10;99.90;;;;;;5090770;28;20041;-80
2021/01/15 12:11:05;;;;;;;14.57;9.63;;;3.20;99.90;;;;;;5109722;28;20024;-80
2021/01/15 12:13:31;;;;;;;15.45;8.38;;;3.20;99.80;;;;;;5089726;28;20023;-80
2021/01/15 12:15:57;;;;;;;14.40;9.48;;;3.20;99.90;;;;;;5110963;28;20057;-81
2021/01/15 12:18:24;;;;;;;16.90;9.50;;;3.20;99.80;;;;;;5092221;28;20067;-81
2021/01/15 12:20:50;;;;;;;15.40;9.80;;;3.20;99.80;;;;;;5111273;28;20020;-80
2021/01/15 12:23:17;;;;;;;15.02;9.07;;;3.20;99.70;;;;;;5089488;28;20103;-80
2021/01/15 12:25:44;;;;;;;14.75;9.32;;;3.20;99.70;;;;;;5091853;28;20488;-81
2021/01/15 12:28:11;;;;;;;12.85;8.27;;;3.20;99.70;;;;;;5087779;28;20016;-80
2021/01/15 12:30:37;;;;;;;12.80;8.43;;;3.20;99.70;;;;;;5092464;28;20023;-80
2021/01/15 12:33:10;;;;;;;15.02;9.70;;;3.20;99.70;;;;;;5087601;28;20027;-80
2021/01/15 12:35:36;;;;;;;19.67;10.70;;;3.20;99.60;;;;;;5091864;28;20032;-80
2021/01/15 12:38:07;;;;;;;17.30;10.50;;;3.20;99.60;;;;;;5091234;28;20030;-80
2021/01/15 12:40:33;;;;;;;13.45;9.15;;;3.20;99.50;;;;;;5109460;28;20099;-80
2021/01/15 12:42:59;;;;;;;15.55;9.73;;;3.20;99.50;;;;;;5091472;28;20016;-80
2021/01/15 12:45:24;;;;;;;15.52;9.90;;;3.20;99.50;;;;;;5086217;28;20546;-80
2021/01/15 12:47:50;;;;;;;13.73;8.55;;;3.20;99.50;;;;;;5087778;28;20031;-81
2021/01/15 12:50:16;;;;;;;18.17;9.43;;;3.30;99.50;;;;;;5090657;28;20016;-81
2021/01/15 12:52:41;;;;;;;19.63;11.52;;;3.30;99.50;;;;;;5088423;28;20023;-80
2021/01/15 12:55:07;;;;;;;21.02;13.65;;;3.30;99.30;;;;;;5093718;28;20024;-80
2021/01/15 12:57:33;;;;;;;24.33;14.45;;;3.20;99.10;;;;;;5094512;28;20110;-80
2021/01/15 12:59:58;;;;;;;23.58;13.27;;;3.20;99.00;;;;;;5090894;28;20541;-80